sensor_id;sensor_type;location;lat;lon;timestamp;pressure;altitude;pressure_sealevel;temperature;humidity
3132;BME280;62090;52.330;9.104;2023-03-15T00:00:24;100379.59;;;3.84;82.17
3132;BME280;62090;52.330;9.104;2023-03-15T00:02:54;100372.13;;;3.86;82.13
3132;BME280;62090;52.330;9.104;2023-03-15T00:05:24;100356.13;;;3.85;81.44
3132;BME280;62090;52.330;9.104;2023-03-15T00:07:53;100376.81;;;3.97;81.91
3132;BME280;62090;52.330;9.104;2023-03-15T00:10:26;100337.75;;;3.88;81.62
3132;BME280;62090;52.330;9.104;2023-03-15T00:12:55;100383.56;;;4.16;81.22
3132;BME280;62090;52.330;9.104;2023-03-15T00:15:25;100389.59;;;4.19;80.67
3132;BME280;62090;52.330;9.104;2023-03-15T00:17:55;100359.13;;;3.96;80.82
3132;BME280;62090;52.330;9.104;2023-03-15T00:20:25;100364.69;;;3.89;80.86
3132;BME280;62090;52.330;9.104;2023-03-15T00:22:54;100386.19;;;4.00;80.72
3132;BME280;62090;52.330;9.104;2023-03-15T00:25:27;100382.41;;;3.90;81.06
3132;BME280;62090;52.330;9.104;2023-03-15T00:27:56;100333.78;;;3.56;81.14
3132;BME280;62090;52.330;9.104;2023-03-15T00:30:26;100401.78;;;3.91;80.49
3132;BME280;62090;52.330;9.104;2023-03-15T00:32:56;100336.97;;;3.52;80.75
3132;BME280;62090;52.330;9.104;2023-03-15T00:35:26;100397.66;;;3.75;80.95
3132;BME280;62090;52.330;9.104;2023-03-15T00:37:56;100393.78;;;3.82;81.32
3132;BME280;62090;52.330;9.104;2023-03-15T00:40:28;100387.09;;;3.82;80.71
3132;BME280;62090;52.330;9.104;2023-03-15T00:42:58;100394.56;;;3.81;80.67
3132;BME280;62090;52.330;9.104;2023-03-15T00:45:28;100390.84;;;3.73;81.17
3132;BME280;62090;52.330;9.104;2023-03-15T00:47:57;100368.66;;;3.66;80.96
3132;BME280;62090;52.330;9.104;2023-03-15T00:50:27;100404.22;;;3.72;80.61
3132;BME280;62090;52.330;9.104;2023-03-15T00:52:57;100375.75;;;3.55;81.00
3132;BME280;62090;52.330;9.104;2023-03-15T00:55:29;100404.72;;;3.65;81.13
3132;BME280;62090;52.330;9.104;2023-03-15T00:57:59;100415.19;;;3.72;81.11
3132;BME280;62090;52.330;9.104;2023-03-15T01:00:29;100400.13;;;3.74;80.72
3132;BME280;62090;52.330;9.104;2023-03-15T01:02:59;100325.91;;;3.30;80.71
3132;BME280;62090;52.330;9.104;2023-03-15T01:05:29;100406.66;;;3.70;80.71
3132;BME280;62090;52.330;9.104;2023-03-15T01:07:58;100383.16;;;3.52;81.23
3132;BME280;62090;52.330;9.104;2023-03-15T01:10:33;100425.88;;;3.86;80.97
3132;BME280;62090;52.330;9.104;2023-03-15T01:13:03;100387.94;;;3.83;79.74
3132;BME280;62090;52.330;9.104;2023-03-15T01:15:33;100409.66;;;3.99;79.35
3132;BME280;62090;52.330;9.104;2023-03-15T01:18:02;100370.13;;;3.61;78.89
3132;BME280;62090;52.330;9.104;2023-03-15T01:20:32;100430.91;;;4.04;79.08
3132;BME280;62090;52.330;9.104;2023-03-15T01:23:02;100441.13;;;4.07;79.30
3132;BME280;62090;52.330;9.104;2023-03-15T01:25:34;100425.94;;;4.05;79.39
3132;BME280;62090;52.330;9.104;2023-03-15T01:28:04;100440.06;;;4.02;78.94
3132;BME280;62090;52.330;9.104;2023-03-15T01:30:34;100436.22;;;4.10;78.71
3132;BME280;62090;52.330;9.104;2023-03-15T01:33:04;100444.38;;;4.23;78.59
3132;BME280;62090;52.330;9.104;2023-03-15T01:35:33;100439.22;;;4.20;77.45
3132;BME280;62090;52.330;9.104;2023-03-15T01:38:03;100407.34;;;4.03;77.45
3132;BME280;62090;52.330;9.104;2023-03-15T01:40:39;100436.81;;;4.23;78.46
3132;BME280;62090;52.330;9.104;2023-03-15T01:43:15;100431.53;;;4.17;78.32
3132;BME280;62090;52.330;9.104;2023-03-15T01:46:04;100433.13;;;4.15;78.00
3132;BME280;62090;52.330;9.104;2023-03-15T01:48:41;100449.44;;;4.23;78.22
3132;BME280;62090;52.330;9.104;2023-03-15T01:51:20;100440.41;;;4.09;78.53
3132;BME280;62090;52.330;9.104;2023-03-15T01:53:54;100429.38;;;4.07;77.80
3132;BME280;62090;52.330;9.104;2023-03-15T01:56:29;100420.91;;;4.05;77.94
3132;BME280;62090;52.330;9.104;2023-03-15T01:59:02;100421.28;;;3.95;78.57
3132;BME280;62090;52.330;9.104;2023-03-15T02:01:34;100401.13;;;3.77;78.54
3132;BME280;62090;52.330;9.104;2023-03-15T02:04:07;100451.94;;;4.04;78.88
3132;BME280;62090;52.330;9.104;2023-03-15T02:06:43;100446.41;;;3.94;79.37
3132;BME280;62090;52.330;9.104;2023-03-15T02:09:16;100442.81;;;3.89;79.66
3132;BME280;62090;52.330;9.104;2023-03-15T02:11:50;100430.00;;;3.84;79.96
3132;BME280;62090;52.330;9.104;2023-03-15T02:14:20;100401.22;;;3.61;80.32
3132;BME280;62090;52.330;9.104;2023-03-15T02:16:50;100451.38;;;3.92;80.38
3132;BME280;62090;52.330;9.104;2023-03-15T02:19:32;100434.88;;;3.81;80.48
3132;BME280;62090;52.330;9.104;2023-03-15T02:22:13;100450.88;;;3.99;81.37
3132;BME280;62090;52.330;9.104;2023-03-15T02:24:50;100460.00;;;3.97;82.32
3132;BME280;62090;52.330;9.104;2023-03-15T02:27:28;100472.47;;;3.94;83.47
3132;BME280;62090;52.330;9.104;2023-03-15T02:30:01;100466.56;;;3.94;84.08
3132;BME280;62090;52.330;9.104;2023-03-15T02:32:31;100471.72;;;3.97;84.71
3132;BME280;62090;52.330;9.104;2023-03-15T02:35:01;100478.47;;;3.96;85.62
3132;BME280;62090;52.330;9.104;2023-03-15T02:37:31;100462.50;;;3.97;84.91
3132;BME280;62090;52.330;9.104;2023-03-15T02:40:00;100443.97;;;3.77;85.88
3132;BME280;62090;52.330;9.104;2023-03-15T02:42:34;100448.94;;;3.76;85.90
3132;BME280;62090;52.330;9.104;2023-03-15T02:45:04;100492.41;;;4.07;86.30
3132;BME280;62090;52.330;9.104;2023-03-15T02:47:35;100504.16;;;4.07;86.96
3132;BME280;62090;52.330;9.104;2023-03-15T02:50:05;100493.44;;;3.93;87.37
3132;BME280;62090;52.330;9.104;2023-03-15T02:52:36;100516.81;;;4.08;87.73
3132;BME280;62090;52.330;9.104;2023-03-15T02:55:06;100500.28;;;3.96;88.00
3132;BME280;62090;52.330;9.104;2023-03-15T02:57:39;100495.06;;;3.93;88.36
3132;BME280;62090;52.330;9.104;2023-03-15T03:00:10;100510.19;;;3.93;89.45
3132;BME280;62090;52.330;9.104;2023-03-15T03:02:45;100511.22;;;3.96;89.26
3132;BME280;62090;52.330;9.104;2023-03-15T03:05:15;100381.06;;;3.08;89.99
3132;BME280;62090;52.330;9.104;2023-03-15T03:07:45;100495.09;;;3.75;91.13
3132;BME280;62090;52.330;9.104;2023-03-15T03:10:18;100523.91;;;3.80;92.35
3132;BME280;62090;52.330;9.104;2023-03-15T03:12:54;100525.47;;;3.78;92.43
3132;BME280;62090;52.330;9.104;2023-03-15T03:15:32;100525.38;;;3.76;93.26
3132;BME280;62090;52.330;9.104;2023-03-15T03:18:02;100507.16;;;3.47;94.18
3132;BME280;62090;52.330;9.104;2023-03-15T03:20:32;100499.91;;;3.53;94.24
3132;BME280;62090;52.330;9.104;2023-03-15T03:23:02;100542.25;;;3.77;94.53
3132;BME280;62090;52.330;9.104;2023-03-15T03:25:32;100531.44;;;3.62;95.70
3132;BME280;62090;52.330;9.104;2023-03-15T03:28:05;100540.22;;;3.70;95.88
3132;BME280;62090;52.330;9.104;2023-03-15T03:30:35;100543.91;;;3.77;95.58
3132;BME280;62090;52.330;9.104;2023-03-15T03:33:04;100525.59;;;3.63;95.63
3132;BME280;62090;52.330;9.104;2023-03-15T03:35:35;100552.66;;;3.67;95.86
3132;BME280;62090;52.330;9.104;2023-03-15T03:38:04;100574.56;;;3.86;96.21
3132;BME280;62090;52.330;9.104;2023-03-15T03:40:38;100557.28;;;3.76;95.44
3132;BME280;62090;52.330;9.104;2023-03-15T03:43:10;100517.84;;;3.59;94.93
3132;BME280;62090;52.330;9.104;2023-03-15T03:45:40;100590.81;;;3.91;96.02
3132;BME280;62090;52.330;9.104;2023-03-15T03:48:10;100569.25;;;3.80;96.34
3132;BME280;62090;52.330;9.104;2023-03-15T03:50:40;100569.53;;;3.86;96.61
3132;BME280;62090;52.330;9.104;2023-03-15T03:53:10;100591.59;;;3.90;96.48
3132;BME280;62090;52.330;9.104;2023-03-15T03:55:40;100597.50;;;4.08;96.46
3132;BME280;62090;52.330;9.104;2023-03-15T03:58:18;100565.72;;;3.94;95.77
3132;BME280;62090;52.330;9.104;2023-03-15T04:00:57;100576.59;;;3.93;96.62
3132;BME280;62090;52.330;9.104;2023-03-15T04:03:30;100608.53;;;4.10;95.83
3132;BME280;62090;52.330;9.104;2023-03-15T04:06:10;100594.09;;;3.90;95.89
3132;BME280;62090;52.330;9.104;2023-03-15T04:08:43;100602.81;;;3.97;96.76
3132;BME280;62090;52.330;9.104;2023-03-15T04:11:24;100626.84;;;4.06;96.57
3132;BME280;62090;52.330;9.104;2023-03-15T04:14:01;100611.31;;;3.99;96.93
3132;BME280;62090;52.330;9.104;2023-03-15T04:16:31;100636.41;;;4.13;96.40
3132;BME280;62090;52.330;9.104;2023-03-15T04:19:05;100633.69;;;4.27;95.33
3132;BME280;62090;52.330;9.104;2023-03-15T04:21:35;100628.31;;;4.03;96.63
3132;BME280;62090;52.330;9.104;2023-03-15T04:24:17;100648.31;;;4.16;96.78
3132;BME280;62090;52.330;9.104;2023-03-15T04:26:58;100650.81;;;4.16;96.52
3132;BME280;62090;52.330;9.104;2023-03-15T04:29:49;100627.44;;;4.02;97.47
3132;BME280;62090;52.330;9.104;2023-03-15T04:32:37;100656.00;;;4.19;97.66
3132;BME280;62090;52.330;9.104;2023-03-15T04:35:16;100645.03;;;4.01;96.62
3132;BME280;62090;52.330;9.104;2023-03-15T04:37:55;100644.81;;;3.96;98.18
3132;BME280;62090;52.330;9.104;2023-03-15T04:40:44;100631.19;;;3.93;97.45
3132;BME280;62090;52.330;9.104;2023-03-15T04:43:21;100607.97;;;3.82;97.05
3132;BME280;62090;52.330;9.104;2023-03-15T04:46:07;100657.09;;;4.24;97.30
3132;BME280;62090;52.330;9.104;2023-03-15T04:48:56;100648.22;;;4.14;96.02
3132;BME280;62090;52.330;9.104;2023-03-15T04:51:39;100674.03;;;4.27;96.20
3132;BME280;62090;52.330;9.104;2023-03-15T04:54:32;100669.69;;;4.24;96.79
3132;BME280;62090;52.330;9.104;2023-03-15T04:57:14;100645.41;;;4.08;96.72
3132;BME280;62090;52.330;9.104;2023-03-15T05:00:03;100677.34;;;4.25;97.00
3132;BME280;62090;52.330;9.104;2023-03-15T05:02:45;100683.78;;;4.37;96.38
3132;BME280;62090;52.330;9.104;2023-03-15T05:05:28;100629.50;;;4.09;94.92
3132;BME280;62090;52.330;9.104;2023-03-15T05:08:13;100683.03;;;4.39;95.20
3132;BME280;62090;52.330;9.104;2023-03-15T05:10:57;100691.69;;;4.44;95.00
3132;BME280;62090;52.330;9.104;2023-03-15T05:13:43;100670.25;;;4.18;95.99
3132;BME280;62090;52.330;9.104;2023-03-15T05:16:16;100692.22;;;4.37;95.94
3132;BME280;62090;52.330;9.104;2023-03-15T05:19:01;100709.44;;;4.46;96.02
3132;BME280;62090;52.330;9.104;2023-03-15T05:21:42;100700.00;;;4.42;95.76
3132;BME280;62090;52.330;9.104;2023-03-15T05:24:41;100700.34;;;4.32;96.61
3132;BME280;62090;52.330;9.104;2023-03-15T05:27:29;100695.38;;;4.33;95.21
3132;BME280;62090;52.330;9.104;2023-03-15T05:30:10;100718.31;;;4.38;95.64
3132;BME280;62090;52.330;9.104;2023-03-15T05:33:03;100723.84;;;4.31;96.40
3132;BME280;62090;52.330;9.104;2023-03-15T05:35:43;100712.53;;;4.22;96.37
3132;BME280;62090;52.330;9.104;2023-03-15T05:38:32;100714.56;;;4.13;96.01
3132;BME280;62090;52.330;9.104;2023-03-15T05:41:28;100738.97;;;4.31;95.97
3132;BME280;62090;52.330;9.104;2023-03-15T05:44:29;100716.69;;;4.22;95.67
3132;BME280;62090;52.330;9.104;2023-03-15T05:47:17;100751.22;;;4.41;95.85
3132;BME280;62090;52.330;9.104;2023-03-15T05:50:01;100751.31;;;4.42;96.13
3132;BME280;62090;52.330;9.104;2023-03-15T05:53:02;100753.19;;;4.46;95.07
3132;BME280;62090;52.330;9.104;2023-03-15T05:55:50;100760.53;;;4.42;95.59
3132;BME280;62090;52.330;9.104;2023-03-15T05:58:38;100780.59;;;4.56;94.42
3132;BME280;62090;52.330;9.104;2023-03-15T06:01:11;100777.44;;;4.60;94.17
3132;BME280;62090;52.330;9.104;2023-03-15T06:04:04;100689.22;;;4.10;93.47
3132;BME280;62090;52.330;9.104;2023-03-15T06:06:36;100752.19;;;4.43;93.12
3132;BME280;62090;52.330;9.104;2023-03-15T06:09:11;100683.44;;;3.79;94.50
3132;BME280;62090;52.330;9.104;2023-03-15T06:11:43;100784.03;;;4.41;94.93
3132;BME280;62090;52.330;9.104;2023-03-15T06:14:13;100768.59;;;4.35;94.51
3132;BME280;62090;52.330;9.104;2023-03-15T06:16:51;100797.44;;;4.40;94.75
3132;BME280;62090;52.330;9.104;2023-03-15T06:19:22;100807.03;;;4.47;94.96
3132;BME280;62090;52.330;9.104;2023-03-15T06:21:53;100799.34;;;4.44;94.39
3132;BME280;62090;52.330;9.104;2023-03-15T06:24:38;100755.88;;;4.15;94.38
3132;BME280;62090;52.330;9.104;2023-03-15T06:27:08;100819.22;;;4.55;94.51
3132;BME280;62090;52.330;9.104;2023-03-15T06:29:38;100807.34;;;4.53;94.71
3132;BME280;62090;52.330;9.104;2023-03-15T06:32:08;100832.72;;;4.56;95.29
3132;BME280;62090;52.330;9.104;2023-03-15T06:34:41;100817.28;;;4.34;94.75
3132;BME280;62090;52.330;9.104;2023-03-15T06:37:13;100819.13;;;4.36;94.69
3132;BME280;62090;52.330;9.104;2023-03-15T06:40:01;100815.09;;;4.23;94.17
3132;BME280;62090;52.330;9.104;2023-03-15T06:42:32;100841.91;;;4.38;94.70
3132;BME280;62090;52.330;9.104;2023-03-15T06:45:03;100833.25;;;4.33;94.96
3132;BME280;62090;52.330;9.104;2023-03-15T06:47:32;100851.66;;;4.48;94.54
3132;BME280;62090;52.330;9.104;2023-03-15T06:50:04;100857.63;;;4.50;94.20
3132;BME280;62090;52.330;9.104;2023-03-15T06:52:33;100854.97;;;4.47;94.97
3132;BME280;62090;52.330;9.104;2023-03-15T06:55:07;100865.53;;;4.56;95.02
3132;BME280;62090;52.330;9.104;2023-03-15T06:57:43;100874.91;;;4.58;95.42
3132;BME280;62090;52.330;9.104;2023-03-15T07:00:14;100883.66;;;4.65;95.28
3132;BME280;62090;52.330;9.104;2023-03-15T07:02:44;100890.38;;;4.64;95.10
3132;BME280;62090;52.330;9.104;2023-03-15T07:05:14;100888.31;;;4.74;94.69
3132;BME280;62090;52.330;9.104;2023-03-15T07:07:44;100876.72;;;4.61;94.66
3132;BME280;62090;52.330;9.104;2023-03-15T07:30:30;100604.50;;;2.81;94.74
3132;BME280;62090;52.330;9.104;2023-03-15T07:38:09;100747.09;;;3.75;94.47
3132;BME280;62090;52.330;9.104;2023-03-15T07:40:53;100878.63;;;4.49;93.74
3132;BME280;62090;52.330;9.104;2023-03-15T07:43:56;100961.84;;;4.97;93.40
3132;BME280;62090;52.330;9.104;2023-03-15T07:50:41;100953.56;;;5.00;92.33
3132;BME280;62090;52.330;9.104;2023-03-15T07:58:09;100872.72;;;4.64;91.48
3132;BME280;62090;52.330;9.104;2023-03-15T08:04:53;100929.19;;;5.00;91.99
3132;BME280;62090;52.330;9.104;2023-03-15T08:07:29;100906.31;;;4.97;92.17
3132;BME280;62090;52.330;9.104;2023-03-15T08:09:59;100973.16;;;5.38;91.95
3132;BME280;62090;52.330;9.104;2023-03-15T08:12:32;100979.94;;;5.39;91.17
3132;BME280;62090;52.330;9.104;2023-03-15T08:15:03;100864.44;;;4.85;90.79
3132;BME280;62090;52.330;9.104;2023-03-15T08:17:33;100988.25;;;5.54;90.59
3132;BME280;62090;52.330;9.104;2023-03-15T08:20:07;100987.91;;;5.64;90.03
3132;BME280;62090;52.330;9.104;2023-03-15T08:22:43;100956.69;;;5.46;88.16
3132;BME280;62090;52.330;9.104;2023-03-15T08:25:17;100925.97;;;5.21;88.10
3132;BME280;62090;52.330;9.104;2023-03-15T08:27:50;101006.25;;;5.78;89.25
3132;BME280;62090;52.330;9.104;2023-03-15T08:30:22;100928.47;;;5.37;88.52
3132;BME280;62090;52.330;9.104;2023-03-15T08:32:54;101018.53;;;5.70;88.14
3132;BME280;62090;52.330;9.104;2023-03-15T08:35:26;101025.25;;;5.70;87.00
3132;BME280;62090;52.330;9.104;2023-03-15T08:38:03;101030.09;;;5.65;86.68
3132;BME280;62090;52.330;9.104;2023-03-15T08:40:37;100955.28;;;5.35;88.55
3132;BME280;62090;52.330;9.104;2023-03-15T08:43:11;101012.56;;;5.86;88.00
3132;BME280;62090;52.330;9.104;2023-03-15T08:45:42;101020.72;;;5.98;86.90
3132;BME280;62090;52.330;9.104;2023-03-15T08:48:29;100973.41;;;5.60;86.18
3132;BME280;62090;52.330;9.104;2023-03-15T08:51:02;100931.47;;;5.30;86.67
3132;BME280;62090;52.330;9.104;2023-03-15T08:53:36;101011.38;;;5.79;86.67
3132;BME280;62090;52.330;9.104;2023-03-15T08:56:07;100985.91;;;5.75;86.96
3132;BME280;62090;52.330;9.104;2023-03-15T08:58:38;101043.50;;;6.16;87.16
3132;BME280;62090;52.330;9.104;2023-03-15T09:01:10;101074.69;;;6.52;86.19
3132;BME280;62090;52.330;9.104;2023-03-15T09:03:41;101005.84;;;6.22;85.20
3132;BME280;62090;52.330;9.104;2023-03-15T09:06:12;101078.78;;;6.67;84.54
3132;BME280;62090;52.330;9.104;2023-03-15T09:08:47;101026.69;;;6.35;84.07
3132;BME280;62090;52.330;9.104;2023-03-15T09:11:33;101053.84;;;6.38;84.41
3132;BME280;62090;52.330;9.104;2023-03-15T09:15:43;101048.06;;;6.23;83.95
3132;BME280;62090;52.330;9.104;2023-03-15T09:18:46;101084.41;;;6.43;84.91
3132;BME280;62090;52.330;9.104;2023-03-15T09:24:16;101020.75;;;6.53;84.89
3132;BME280;62090;52.330;9.104;2023-03-15T09:26:51;101115.78;;;7.20;82.89
3132;BME280;62090;52.330;9.104;2023-03-15T09:29:30;100996.97;;;6.68;81.30
3132;BME280;62090;52.330;9.104;2023-03-15T09:32:00;100987.06;;;6.36;79.80
3132;BME280;62090;52.330;9.104;2023-03-15T09:34:41;101116.28;;;6.94;79.80
3132;BME280;62090;52.330;9.104;2023-03-15T09:37:49;100901.72;;;5.77;77.50
3132;BME280;62090;52.330;9.104;2023-03-15T09:40:26;100922.19;;;6.19;78.06
3132;BME280;62090;52.330;9.104;2023-03-15T09:43:03;100946.59;;;6.36;74.67
3132;BME280;62090;52.330;9.104;2023-03-15T09:45:52;101055.09;;;7.04;73.00
3132;BME280;62090;52.330;9.104;2023-03-15T09:48:33;101003.50;;;6.83;71.88
3132;BME280;62090;52.330;9.104;2023-03-15T09:51:11;100833.88;;;5.86;71.64
3132;BME280;62090;52.330;9.104;2023-03-15T09:53:55;100903.41;;;6.14;71.80
3132;BME280;62090;52.330;9.104;2023-03-15T09:56:37;101055.81;;;7.20;72.65
3132;BME280;62090;52.330;9.104;2023-03-15T09:59:08;101092.03;;;7.37;70.82
3132;BME280;62090;52.330;9.104;2023-03-15T10:01:39;101060.13;;;7.02;69.98
3132;BME280;62090;52.330;9.104;2023-03-15T10:04:15;101100.94;;;7.08;69.01
3132;BME280;62090;52.330;9.104;2023-03-15T10:06:54;101056.63;;;6.81;69.46
3132;BME280;62090;52.330;9.104;2023-03-15T10:09:29;101067.75;;;7.04;68.94
3132;BME280;62090;52.330;9.104;2023-03-15T10:12:07;101095.97;;;7.31;68.49
3132;BME280;62090;52.330;9.104;2023-03-15T10:15:13;101061.84;;;7.22;66.26
3132;BME280;62090;52.330;9.104;2023-03-15T10:17:50;101050.28;;;7.29;66.46
3132;BME280;62090;52.330;9.104;2023-03-15T10:20:28;101021.41;;;7.46;66.68
3132;BME280;62090;52.330;9.104;2023-03-15T10:23:04;101113.94;;;8.17;65.57
3132;BME280;62090;52.330;9.104;2023-03-15T10:25:39;101017.22;;;7.47;64.94
3132;BME280;62090;52.330;9.104;2023-03-15T10:28:22;101032.69;;;7.53;65.46
3132;BME280;62090;52.330;9.104;2023-03-15T10:30:56;101083.56;;;7.77;61.86
3132;BME280;62090;52.330;9.104;2023-03-15T10:33:30;101113.88;;;7.94;62.78
3132;BME280;62090;52.330;9.104;2023-03-15T10:36:02;101061.09;;;7.65;61.79
3132;BME280;62090;52.330;9.104;2023-03-15T10:38:39;101059.00;;;7.76;62.66
3132;BME280;62090;52.330;9.104;2023-03-15T10:41:11;101015.97;;;7.37;62.50
3132;BME280;62090;52.330;9.104;2023-03-15T10:44:00;101030.47;;;7.40;62.35
3132;BME280;62090;52.330;9.104;2023-03-15T10:46:30;101099.31;;;7.70;61.55
3132;BME280;62090;52.330;9.104;2023-03-15T10:49:09;101096.63;;;7.46;60.72
3132;BME280;62090;52.330;9.104;2023-03-15T10:51:41;101122.78;;;7.45;62.86
3132;BME280;62090;52.330;9.104;2023-03-15T10:54:12;101093.38;;;7.29;63.21
3132;BME280;62090;52.330;9.104;2023-03-15T10:56:45;101083.66;;;7.19;62.87
3132;BME280;62090;52.330;9.104;2023-03-15T10:59:20;101096.75;;;7.30;63.16
3132;BME280;62090;52.330;9.104;2023-03-15T11:01:52;101125.94;;;7.39;62.64
3132;BME280;62090;52.330;9.104;2023-03-15T11:04:23;101116.19;;;7.29;60.13
3132;BME280;62090;52.330;9.104;2023-03-15T11:07:01;101087.97;;;7.21;60.33
3132;BME280;62090;52.330;9.104;2023-03-15T11:09:38;101044.09;;;7.03;60.75
3132;BME280;62090;52.330;9.104;2023-03-15T11:12:11;101112.66;;;7.45;60.99
3132;BME280;62090;52.330;9.104;2023-03-15T11:14:49;101090.50;;;7.21;60.90
3132;BME280;62090;52.330;9.104;2023-03-15T11:17:22;101141.72;;;7.53;62.28
3132;BME280;62090;52.330;9.104;2023-03-15T11:19:54;101135.94;;;7.55;62.41
3132;BME280;62090;52.330;9.104;2023-03-15T11:22:25;101133.50;;;7.58;62.29
3132;BME280;62090;52.330;9.104;2023-03-15T11:24:55;101141.75;;;7.74;61.21
3132;BME280;62090;52.330;9.104;2023-03-15T11:27:26;101149.97;;;7.87;59.57
3132;BME280;62090;52.330;9.104;2023-03-15T11:30:00;101142.78;;;7.77;57.17
3132;BME280;62090;52.330;9.104;2023-03-15T11:32:30;101138.91;;;7.66;55.44
3132;BME280;62090;52.330;9.104;2023-03-15T11:35:03;101141.38;;;7.64;56.32
3132;BME280;62090;52.330;9.104;2023-03-15T11:37:37;101157.84;;;7.74;56.94
3132;BME280;62090;52.330;9.104;2023-03-15T11:40:15;101163.53;;;7.69;55.75
3132;BME280;62090;52.330;9.104;2023-03-15T11:42:51;101161.94;;;7.71;55.97
3132;BME280;62090;52.330;9.104;2023-03-15T11:45:28;101164.06;;;7.81;55.42
3132;BME280;62090;52.330;9.104;2023-03-15T11:48:23;101163.94;;;7.98;54.04
3132;BME280;62090;52.330;9.104;2023-03-15T11:50:56;101168.22;;;8.20;54.70
3132;BME280;62090;52.330;9.104;2023-03-15T11:53:31;101139.44;;;8.20;52.27
3132;BME280;62090;52.330;9.104;2023-03-15T11:56:19;101158.50;;;8.52;52.33
3132;BME280;62090;52.330;9.104;2023-03-15T11:59:03;101139.97;;;8.97;50.94
3132;BME280;62090;52.330;9.104;2023-03-15T12:01:41;101164.03;;;8.84;51.41
3132;BME280;62090;52.330;9.104;2023-03-15T12:04:39;101143.53;;;8.58;50.91
3132;BME280;62090;52.330;9.104;2023-03-15T12:07:27;101182.56;;;8.60;50.69
3132;BME280;62090;52.330;9.104;2023-03-15T12:10:19;101168.38;;;8.65;50.32
3132;BME280;62090;52.330;9.104;2023-03-15T12:13:04;101172.50;;;8.63;51.03
3132;BME280;62090;52.330;9.104;2023-03-15T12:15:43;101206.09;;;8.76;51.57
3132;BME280;62090;52.330;9.104;2023-03-15T12:18:20;101240.16;;;7.81;61.37
3132;BME280;62090;52.330;9.104;2023-03-15T12:20:56;101265.25;;;6.31;71.38
3132;BME280;62090;52.330;9.104;2023-03-15T12:23:38;101204.53;;;5.65;77.76
3132;BME280;62090;52.330;9.104;2023-03-15T12:26:15;101239.47;;;5.25;81.13
3132;BME280;62090;52.330;9.104;2023-03-15T12:29:00;101241.75;;;5.21;84.13
3132;BME280;62090;52.330;9.104;2023-03-15T12:31:50;101246.31;;;5.12;85.61
3132;BME280;62090;52.330;9.104;2023-03-15T12:34:35;101264.03;;;4.97;86.14
3132;BME280;62090;52.330;9.104;2023-03-15T12:37:08;101285.63;;;4.77;88.00
3132;BME280;62090;52.330;9.104;2023-03-15T12:39:44;101278.34;;;4.67;87.54
3132;BME280;62090;52.330;9.104;2023-03-15T12:45:45;101308.59;;;5.11;90.50
3132;BME280;62090;52.330;9.104;2023-03-15T12:48:25;101297.91;;;5.00;90.43
3132;BME280;62090;52.330;9.104;2023-03-15T12:51:00;101312.56;;;4.91;90.94
3132;BME280;62090;52.330;9.104;2023-03-15T12:53:43;101295.13;;;4.81;92.57
3132;BME280;62090;52.330;9.104;2023-03-15T12:56:37;101312.69;;;4.94;92.63
3132;BME280;62090;52.330;9.104;2023-03-15T12:59:16;101301.50;;;4.60;92.84
3132;BME280;62090;52.330;9.104;2023-03-15T13:01:50;101256.78;;;4.28;94.83
3132;BME280;62090;52.330;9.104;2023-03-15T13:04:19;101290.34;;;4.42;95.48
3132;BME280;62090;52.330;9.104;2023-03-15T13:06:57;101275.19;;;4.56;94.43
3132;BME280;62090;52.330;9.104;2023-03-15T13:09:48;101268.75;;;4.61;93.36
3132;BME280;62090;52.330;9.104;2023-03-15T13:12:26;101308.81;;;4.85;93.92
3132;BME280;62090;52.330;9.104;2023-03-15T13:15:02;101279.34;;;5.00;94.30
3132;BME280;62090;52.330;9.104;2023-03-15T13:17:40;101278.63;;;5.17;92.17
3132;BME280;62090;52.330;9.104;2023-03-15T13:20:19;101289.88;;;5.38;90.72
3132;BME280;62090;52.330;9.104;2023-03-15T13:23:03;101275.81;;;5.27;87.52
3132;BME280;62090;52.330;9.104;2023-03-15T13:25:38;101296.22;;;5.63;86.76
3132;BME280;62090;52.330;9.104;2023-03-15T13:28:18;101295.69;;;5.68;84.14
3132;BME280;62090;52.330;9.104;2023-03-15T13:30:52;101297.25;;;5.66;82.98
3132;BME280;62090;52.330;9.104;2023-03-15T13:33:25;101292.84;;;5.78;81.31
3132;BME280;62090;52.330;9.104;2023-03-15T13:35:56;101288.47;;;5.90;82.78
3132;BME280;62090;52.330;9.104;2023-03-15T13:38:32;101304.28;;;6.03;82.22
3132;BME280;62090;52.330;9.104;2023-03-15T13:41:04;101288.28;;;5.87;80.34
3132;BME280;62090;52.330;9.104;2023-03-15T13:43:35;101300.78;;;6.01;78.25
3132;BME280;62090;52.330;9.104;2023-03-15T13:46:06;101306.31;;;6.26;77.83
3132;BME280;62090;52.330;9.104;2023-03-15T13:48:39;101295.50;;;6.46;77.95
3132;BME280;62090;52.330;9.104;2023-03-15T13:51:16;101306.22;;;6.74;76.94
3132;BME280;62090;52.330;9.104;2023-03-15T13:53:53;101295.56;;;6.64;74.12
3132;BME280;62090;52.330;9.104;2023-03-15T13:56:28;101300.41;;;6.59;73.95
3132;BME280;62090;52.330;9.104;2023-03-15T13:59:14;101304.69;;;6.60;72.26
3132;BME280;62090;52.330;9.104;2023-03-15T14:01:44;101305.72;;;6.48;73.32
3132;BME280;62090;52.330;9.104;2023-03-15T14:04:16;101288.78;;;6.47;73.92
3132;BME280;62090;52.330;9.104;2023-03-15T14:06:46;101296.44;;;6.64;73.46
3132;BME280;62090;52.330;9.104;2023-03-15T14:09:21;101304.69;;;6.78;73.09
3132;BME280;62090;52.330;9.104;2023-03-15T14:12:02;101262.00;;;6.68;72.89
3132;BME280;62090;52.330;9.104;2023-03-15T14:14:36;101267.22;;;6.89;72.44
3132;BME280;62090;52.330;9.104;2023-03-15T14:17:16;101286.91;;;7.12;71.58
3132;BME280;62090;52.330;9.104;2023-03-15T14:19:54;101254.84;;;6.95;69.73
3132;BME280;62090;52.330;9.104;2023-03-15T14:22:25;101289.84;;;7.21;71.82
3132;BME280;62090;52.330;9.104;2023-03-15T14:24:57;101277.00;;;7.36;68.43
3132;BME280;62090;52.330;9.104;2023-03-15T14:27:27;101280.72;;;7.42;67.06
3132;BME280;62090;52.330;9.104;2023-03-15T14:29:58;101286.47;;;7.57;67.74
3132;BME280;62090;52.330;9.104;2023-03-15T14:32:30;101278.06;;;7.58;66.87
3132;BME280;62090;52.330;9.104;2023-03-15T14:35:03;101286.91;;;7.67;67.35
3132;BME280;62090;52.330;9.104;2023-03-15T14:37:37;101274.22;;;7.67;65.65
3132;BME280;62090;52.330;9.104;2023-03-15T14:40:16;101290.63;;;7.75;64.76
3132;BME280;62090;52.330;9.104;2023-03-15T14:42:47;101269.94;;;7.66;65.13